sensor_id;sensor_type;location;lat;lon;timestamp;pressure;altitude;pressure_sealevel;temperature;humidity
76627;BME280;65519;53.230;10.390;2024-02-15T00:00:36;101168.69;;;11.08;100.00
76627;BME280;65519;53.230;10.390;2024-02-15T00:03:03;101174.41;;;11.07;100.00
76627;BME280;65519;53.230;10.390;2024-02-15T00:05:32;101175.56;;;11.16;100.00
76627;BME280;65519;53.230;10.390;2024-02-15T00:08:00;101175.31;;;11.17;100.00
76627;BME280;65519;53.230;10.390;2024-02-15T00:10:25;101179.94;;;11.12;100.00
76627;BME280;65519;53.230;10.390;2024-02-15T00:12:51;101178.88;;;11.18;100.00
76627;BME280;65519;53.230;10.390;2024-02-15T00:15:19;101182.94;;;11.15;100.00
76627;BME280;65519;53.230;10.390;2024-02-15T00:17:45;101173.94;;;11.15;100.00
76627;BME280;65519;53.230;10.390;2024-02-15T00:20:12;101169.84;;;11.12;100.00
76627;BME280;65519;53.230;10.390;2024-02-15T00:22:38;101185.41;;;11.17;100.00
76627;BME280;65519;53.230;10.390;2024-02-15T00:25:06;101188.97;;;11.17;100.00
76627;BME280;65519;53.230;10.390;2024-02-15T00:27:35;101179.38;;;11.15;100.00
76627;BME280;65519;53.230;10.390;2024-02-15T00:30:01;101179.63;;;11.08;100.00
76627;BME280;65519;53.230;10.390;2024-02-15T00:32:27;101186.22;;;11.17;100.00
76627;BME280;65519;53.230;10.390;2024-02-15T00:34:52;101189.75;;;11.13;100.00
76627;BME280;65519;53.230;10.390;2024-02-15T00:37:19;101181.03;;;11.16;100.00
76627;BME280;65519;53.230;10.390;2024-02-15T00:39:44;101183.25;;;11.19;100.00
76627;BME280;65519;53.230;10.390;2024-02-15T00:42:10;101184.34;;;11.18;100.00
76627;BME280;65519;53.230;10.390;2024-02-15T00:44:35;101188.47;;;11.25;100.00
76627;BME280;65519;53.230;10.390;2024-02-15T00:47:02;101183.31;;;11.24;100.00
76627;BME280;65519;53.230;10.390;2024-02-15T00:49:27;101178.94;;;11.23;100.00
76627;BME280;65519;53.230;10.390;2024-02-15T00:51:53;101180.56;;;11.24;100.00
76627;BME280;65519;53.230;10.390;2024-02-15T00:54:19;101182.28;;;11.35;100.00
76627;BME280;65519;53.230;10.390;2024-02-15T00:56:44;101179.78;;;11.28;100.00
76627;BME280;65519;53.230;10.390;2024-02-15T00:59:09;101182.81;;;11.32;100.00
76627;BME280;65519;53.230;10.390;2024-02-15T01:01:35;101184.72;;;11.31;100.00
76627;BME280;65519;53.230;10.390;2024-02-15T01:04:04;101183.38;;;11.34;100.00
76627;BME280;65519;53.230;10.390;2024-02-15T01:06:29;101177.34;;;11.32;100.00
76627;BME280;65519;53.230;10.390;2024-02-15T01:08:55;101191.06;;;11.42;100.00
76627;BME280;65519;53.230;10.390;2024-02-15T01:11:20;101190.75;;;11.33;100.00
76627;BME280;65519;53.230;10.390;2024-02-15T01:13:46;101185.03;;;11.35;100.00
76627;BME280;65519;53.230;10.390;2024-02-15T01:16:11;101190.47;;;11.35;100.00
76627;BME280;65519;53.230;10.390;2024-02-15T01:18:37;101187.19;;;11.33;100.00
76627;BME280;65519;53.230;10.390;2024-02-15T01:21:03;101193.75;;;11.37;100.00
76627;BME280;65519;53.230;10.390;2024-02-15T01:23:29;101201.69;;;11.39;100.00
76627;BME280;65519;53.230;10.390;2024-02-15T01:25:54;101194.28;;;11.34;100.00
76627;BME280;65519;53.230;10.390;2024-02-15T01:28:20;101190.50;;;11.40;100.00
76627;BME280;65519;53.230;10.390;2024-02-15T01:30:45;101191.03;;;11.37;100.00
76627;BME280;65519;53.230;10.390;2024-02-15T01:33:12;101197.34;;;11.43;100.00
76627;BME280;65519;53.230;10.390;2024-02-15T01:35:38;101192.72;;;11.43;100.00
76627;BME280;65519;53.230;10.390;2024-02-15T01:38:05;101187.81;;;11.45;100.00
76627;BME280;65519;53.230;10.390;2024-02-15T01:40:30;101187.50;;;11.42;100.00
76627;BME280;65519;53.230;10.390;2024-02-15T01:42:56;101185.03;;;11.40;100.00
76627;BME280;65519;53.230;10.390;2024-02-15T01:45:23;101186.19;;;11.44;100.00
76627;BME280;65519;53.230;10.390;2024-02-15T01:47:51;101184.28;;;11.45;100.00
76627;BME280;65519;53.230;10.390;2024-02-15T01:50:17;101181.81;;;11.48;100.00
76627;BME280;65519;53.230;10.390;2024-02-15T01:52:45;101179.63;;;11.45;100.00
76627;BME280;65519;53.230;10.390;2024-02-15T01:55:13;101176.91;;;11.50;100.00
76627;BME280;65519;53.230;10.390;2024-02-15T01:57:44;101174.16;;;11.45;100.00
76627;BME280;65519;53.230;10.390;2024-02-15T02:00:10;101178.56;;;11.46;100.00
76627;BME280;65519;53.230;10.390;2024-02-15T02:02:39;101175.56;;;11.53;100.00
76627;BME280;65519;53.230;10.390;2024-02-15T02:05:07;101177.50;;;11.57;100.00
76627;BME280;65519;53.230;10.390;2024-02-15T02:07:33;101172.84;;;11.53;100.00
76627;BME280;65519;53.230;10.390;2024-02-15T02:09:59;101168.50;;;11.57;100.00
76627;BME280;65519;53.230;10.390;2024-02-15T02:12:24;101164.09;;;11.51;100.00
76627;BME280;65519;53.230;10.390;2024-02-15T02:14:55;101167.44;;;11.63;100.00
76627;BME280;65519;53.230;10.390;2024-02-15T02:17:21;101168.28;;;11.63;100.00
76627;BME280;65519;53.230;10.390;2024-02-15T02:19:47;101174.28;;;11.65;100.00
76627;BME280;65519;53.230;10.390;2024-02-15T02:22:16;101177.81;;;11.61;100.00
76627;BME280;65519;53.230;10.390;2024-02-15T02:24:54;101174.28;;;11.65;100.00
76627;BME280;65519;53.230;10.390;2024-02-15T02:27:21;101176.72;;;11.62;100.00
76627;BME280;65519;53.230;10.390;2024-02-15T02:29:46;101177.28;;;11.64;100.00
76627;BME280;65519;53.230;10.390;2024-02-15T02:32:12;101179.16;;;11.58;100.00
76627;BME280;65519;53.230;10.390;2024-02-15T02:34:38;101175.63;;;11.63;100.00
76627;BME280;65519;53.230;10.390;2024-02-15T02:37:06;101181.66;;;11.65;100.00
76627;BME280;65519;53.230;10.390;2024-02-15T02:39:34;101184.59;;;11.58;100.00
76627;BME280;65519;53.230;10.390;2024-02-15T02:42:00;101172.34;;;11.61;100.00
76627;BME280;65519;53.230;10.390;2024-02-15T02:44:25;101184.09;;;11.61;100.00
76627;BME280;65519;53.230;10.390;2024-02-15T02:46:51;101185.22;;;11.65;100.00
76627;BME280;65519;53.230;10.390;2024-02-15T02:49:16;101189.25;;;11.58;100.00
76627;BME280;65519;53.230;10.390;2024-02-15T02:51:42;101184.34;;;11.60;100.00
76627;BME280;65519;53.230;10.390;2024-02-15T02:54:08;101181.88;;;11.58;100.00
76627;BME280;65519;53.230;10.390;2024-02-15T02:56:33;101179.19;;;11.63;100.00
76627;BME280;65519;53.230;10.390;2024-02-15T02:58:59;101178.09;;;11.64;100.00
76627;BME280;65519;53.230;10.390;2024-02-15T03:01:24;101183.56;;;11.64;100.00
76627;BME280;65519;53.230;10.390;2024-02-15T03:03:53;101176.97;;;11.60;100.00
76627;BME280;65519;53.230;10.390;2024-02-15T03:06:22;101173.22;;;11.66;100.00
76627;BME280;65519;53.230;10.390;2024-02-15T03:08:50;101173.47;;;11.65;100.00
76627;BME280;65519;53.230;10.390;2024-02-15T03:11:19;101176.97;;;11.60;100.00
76627;BME280;65519;53.230;10.390;2024-02-15T03:13:45;101161.72;;;11.64;100.00
76627;BME280;65519;53.230;10.390;2024-02-15T03:16:11;101172.66;;;11.64;100.00
76627;BME280;65519;53.230;10.390;2024-02-15T03:18:36;101168.53;;;11.62;100.00
76627;BME280;65519;53.230;10.390;2024-02-15T03:21:02;101174.03;;;11.67;100.00
76627;BME280;65519;53.230;10.390;2024-02-15T03:23:27;101172.38;;;11.66;100.00
76627;BME280;65519;53.230;10.390;2024-02-15T03:25:54;101170.75;;;11.70;100.00
76627;BME280;65519;53.230;10.390;2024-02-15T03:28:19;101174.28;;;11.65;100.00
76627;BME280;65519;53.230;10.390;2024-02-15T03:30:46;101178.09;;;11.64;100.00
76627;BME280;65519;53.230;10.390;2024-02-15T03:33:12;101182.50;;;11.70;100.00
76627;BME280;65519;53.230;10.390;2024-02-15T03:35:38;101182.50;;;11.65;100.00
76627;BME280;65519;53.230;10.390;2024-02-15T03:38:04;101188.50;;;11.67;100.00
76627;BME280;65519;53.230;10.390;2024-02-15T03:40:30;101180.59;;;11.71;100.00
76627;BME280;65519;53.230;10.390;2024-02-15T03:42:57;101188.53;;;11.73;100.00
76627;BME280;65519;53.230;10.390;2024-02-15T03:45:23;101184.97;;;11.72;100.00
76627;BME280;65519;53.230;10.390;2024-02-15T03:47:53;101195.59;;;11.68;100.00
76627;BME280;65519;53.230;10.390;2024-02-15T03:50:19;101190.94;;;11.69;100.00
76627;BME280;65519;53.230;10.390;2024-02-15T03:52:46;101190.78;;;11.76;100.00
76627;BME280;65519;53.230;10.390;2024-02-15T03:55:12;101187.69;;;11.72;100.00
76627;BME280;65519;53.230;10.390;2024-02-15T03:57:38;101200.28;;;11.73;100.00
76627;BME280;65519;53.230;10.390;2024-02-15T04:00:09;101207.97;;;11.76;100.00
76627;BME280;65519;53.230;10.390;2024-02-15T04:02:36;101204.66;;;11.74;100.00
76627;BME280;65519;53.230;10.390;2024-02-15T04:05:02;101201.72;;;11.81;100.00
76627;BME280;65519;53.230;10.390;2024-02-15T04:07:30;101201.09;;;11.74;100.00
76627;BME280;65519;53.230;10.390;2024-02-15T04:09:56;101205.00;;;11.78;100.00
76627;BME280;65519;53.230;10.390;2024-02-15T04:12:21;101208.00;;;11.81;100.00
76627;BME280;65519;53.230;10.390;2024-02-15T04:14:47;101209.63;;;11.77;100.00
76627;BME280;65519;53.230;10.390;2024-02-15T04:17:14;101210.97;;;11.80;100.00
76627;BME280;65519;53.230;10.390;2024-02-15T04:19:43;101206.09;;;11.82;100.00
76627;BME280;65519;53.230;10.390;2024-02-15T04:22:09;101205.53;;;11.80;100.00
76627;BME280;65519;53.230;10.390;2024-02-15T04:24:36;101206.91;;;11.82;100.00
76627;BME280;65519;53.230;10.390;2024-02-15T04:27:05;101208.03;;;11.86;100.00
76627;BME280;65519;53.230;10.390;2024-02-15T04:29:33;101212.16;;;11.89;100.00
76627;BME280;65519;53.230;10.390;2024-02-15T04:31:58;101214.84;;;11.84;100.00
76627;BME280;65519;53.230;10.390;2024-02-15T04:34:24;101202.28;;;11.83;100.00
76627;BME280;65519;53.230;10.390;2024-02-15T04:36:49;101199.81;;;11.81;100.00
76627;BME280;65519;53.230;10.390;2024-02-15T04:39:19;101207.66;;;11.73;100.00
76627;BME280;65519;53.230;10.390;2024-02-15T04:41:52;101217.88;;;11.87;100.00
76627;BME280;65519;53.230;10.390;2024-02-15T04:44:19;101207.44;;;11.79;100.00
76627;BME280;65519;53.230;10.390;2024-02-15T04:46:52;101214.28;;;11.82;100.00
76627;BME280;65519;53.230;10.390;2024-02-15T04:49:17;101211.59;;;11.87;100.00
76627;BME280;65519;53.230;10.390;2024-02-15T04:51:44;101208.84;;;11.87;100.00
76627;BME280;65519;53.230;10.390;2024-02-15T04:54:10;101206.91;;;11.82;100.00
76627;BME280;65519;53.230;10.390;2024-02-15T04:56:41;101212.13;;;11.84;100.00
76627;BME280;65519;53.230;10.390;2024-02-15T04:59:10;101220.59;;;11.87;100.00
76627;BME280;65519;53.230;10.390;2024-02-15T05:01:42;101224.13;;;11.83;100.00
76627;BME280;65519;53.230;10.390;2024-02-15T05:04:09;101227.41;;;11.85;100.00
76627;BME280;65519;53.230;10.390;2024-02-15T05:06:35;101224.38;;;11.81;100.00
76627;BME280;65519;53.230;10.390;2024-02-15T05:09:02;101223.59;;;11.86;100.00
76627;BME280;65519;53.230;10.390;2024-02-15T05:11:42;101228.19;;;11.80;100.00
76627;BME280;65519;53.230;10.390;2024-02-15T05:14:11;101226.06;;;11.87;100.00
76627;BME280;65519;53.230;10.390;2024-02-15T05:16:37;101231.81;;;11.91;100.00
76627;BME280;65519;53.230;10.390;2024-02-15T05:19:10;101224.44;;;11.86;100.00
76627;BME280;65519;53.230;10.390;2024-02-15T05:21:37;101223.91;;;11.89;100.00
76627;BME280;65519;53.230;10.390;2024-02-15T05:24:04;101228.00;;;11.92;100.00
76627;BME280;65519;53.230;10.390;2024-02-15T05:26:29;101235.63;;;11.90;100.00
76627;BME280;65519;53.230;10.390;2024-02-15T05:28:55;101235.63;;;11.85;100.00
76627;BME280;65519;53.230;10.390;2024-02-15T05:31:20;101235.38;;;11.91;100.00
76627;BME280;65519;53.230;10.390;2024-02-15T05:33:47;101232.41;;;11.98;100.00
76627;BME280;65519;53.230;10.390;2024-02-15T05:36:13;101234.31;;;11.97;100.00
76627;BME280;65519;53.230;10.390;2024-02-15T05:38:39;101235.34;;;11.86;100.00
76627;BME280;65519;53.230;10.390;2024-02-15T05:41:05;101227.72;;;11.88;100.00
76627;BME280;65519;53.230;10.390;2024-02-15T05:43:33;101234.88;;;11.99;100.00
76627;BME280;65519;53.230;10.390;2024-02-15T05:45:59;101225.31;;;11.97;100.00
76627;BME280;65519;53.230;10.390;2024-02-15T05:48:26;101220.63;;;11.92;100.00
76627;BME280;65519;53.230;10.390;2024-02-15T05:50:53;101226.13;;;11.97;100.00
76627;BME280;65519;53.230;10.390;2024-02-15T05:53:20;101221.19;;;11.89;100.00
76627;BME280;65519;53.230;10.390;2024-02-15T05:55:45;101230.72;;;11.87;100.00
76627;BME280;65519;53.230;10.390;2024-02-15T05:58:11;101227.41;;;11.85;100.00
76627;BME280;65519;53.230;10.390;2024-02-15T06:00:39;101225.22;;;11.82;100.00
76627;BME280;65519;53.230;10.390;2024-02-15T06:03:04;101232.63;;;11.86;100.00
76627;BME280;65519;53.230;10.390;2024-02-15T06:05:31;101232.56;;;11.76;100.00
76627;BME280;65519;53.230;10.390;2024-02-15T06:07:58;101239.09;;;11.75;100.00
76627;BME280;65519;53.230;10.390;2024-02-15T06:10:24;101233.31;;;11.71;100.00
76627;BME280;65519;53.230;10.390;2024-02-15T06:12:50;101235.03;;;11.78;100.00
76627;BME280;65519;53.230;10.390;2024-02-15T06:15:16;101231.22;;;11.79;100.00
76627;BME280;65519;53.230;10.390;2024-02-15T06:17:42;101242.97;;;11.84;100.00
76627;BME280;65519;53.230;10.390;2024-02-15T06:20:13;101246.44;;;11.75;100.00
76627;BME280;65519;53.230;10.390;2024-02-15T06:22:40;101248.94;;;11.76;100.00
76627;BME280;65519;53.230;10.390;2024-02-15T06:25:06;101250.84;;;11.76;100.00
76627;BME280;65519;53.230;10.390;2024-02-15T06:27:31;101244.31;;;11.77;100.00
76627;BME280;65519;53.230;10.390;2024-02-15T06:29:58;101241.25;;;11.73;100.00
76627;BME280;65519;53.230;10.390;2024-02-15T06:32:42;101250.88;;;11.81;100.00
76627;BME280;65519;53.230;10.390;2024-02-15T06:35:27;101255.72;;;11.74;100.00
76627;BME280;65519;53.230;10.390;2024-02-15T06:38:11;101252.75;;;11.75;100.00
76627;BME280;65519;53.230;10.390;2024-02-15T06:40:55;101256.06;;;11.77;100.00
76627;BME280;65519;53.230;10.390;2024-02-15T06:43:20;101252.00;;;11.85;100.00
76627;BME280;65519;53.230;10.390;2024-02-15T06:45:46;101252.16;;;11.73;100.00
76627;BME280;65519;53.230;10.390;2024-02-15T06:48:12;101252.16;;;11.73;100.00
76627;BME280;65519;53.230;10.390;2024-02-15T06:50:38;101250.84;;;11.76;100.00
76627;BME280;65519;53.230;10.390;2024-02-15T06:53:05;101253.81;;;11.74;100.00
76627;BME280;65519;53.230;10.390;2024-02-15T06:55:30;101249.50;;;11.78;100.00
76627;BME280;65519;53.230;10.390;2024-02-15T06:57:56;101248.13;;;11.81;100.00
76627;BME280;65519;53.230;10.390;2024-02-15T07:00:22;101242.97;;;11.84;100.00
76627;BME280;65519;53.230;10.390;2024-02-15T07:02:47;101241.66;;;11.87;100.00
76627;BME280;65519;53.230;10.390;2024-02-15T07:05:14;101233.94;;;11.79;100.00
76627;BME280;65519;53.230;10.390;2024-02-15T07:07:39;101239.72;;;11.87;100.00
76627;BME280;65519;53.230;10.390;2024-02-15T07:10:09;101246.28;;;11.86;100.00
76627;BME280;65519;53.230;10.390;2024-02-15T07:12:35;101247.09;;;11.87;100.00
76627;BME280;65519;53.230;10.390;2024-02-15T07:15:01;101247.38;;;11.90;100.00
76627;BME280;65519;53.230;10.390;2024-02-15T07:17:28;101244.63;;;11.85;100.00
76627;BME280;65519;53.230;10.390;2024-02-15T07:19:54;101248.19;;;11.86;100.00
76627;BME280;65519;53.230;10.390;2024-02-15T07:22:20;101237.22;;;11.81;100.00
76627;BME280;65519;53.230;10.390;2024-02-15T07:24:47;101240.00;;;11.86;100.00
76627;BME280;65519;53.230;10.390;2024-02-15T07:27:13;101240.00;;;11.86;100.00
76627;BME280;65519;53.230;10.390;2024-02-15T07:29:38;101237.25;;;11.86;100.00
76627;BME280;65519;53.230;10.390;2024-02-15T07:32:04;101241.38;;;11.88;100.00
76627;BME280;65519;53.230;10.390;2024-02-15T07:34:30;101249.28;;;11.85;100.00
76627;BME280;65519;53.230;10.390;2024-02-15T07:36:56;101255.56;;;11.85;100.00
76627;BME280;65519;53.230;10.390;2024-02-15T07:39:23;101249.53;;;11.83;100.00
76627;BME280;65519;53.230;10.390;2024-02-15T07:41:56;101256.34;;;11.81;100.00
76627;BME280;65519;53.230;10.390;2024-02-15T07:44:24;101258.03;;;11.87;100.00
76627;BME280;65519;53.230;10.390;2024-02-15T07:46:50;101264.00;;;11.84;100.00
76627;BME280;65519;53.230;10.390;2024-02-15T07:49:15;101260.97;;;11.80;100.00
76627;BME280;65519;53.230;10.390;2024-02-15T07:51:43;101261.84;;;11.86;100.00
76627;BME280;65519;53.230;10.390;2024-02-15T07:54:08;101264.06;;;11.89;100.00
76627;BME280;65519;53.230;10.390;2024-02-15T07:56:34;101259.69;;;11.88;100.00
76627;BME280;65519;53.230;10.390;2024-02-15T07:59:00;101258.03;;;11.87;100.00
76627;BME280;65519;53.230;10.390;2024-02-15T08:01:25;101258.84;;;11.87;100.00
76627;BME280;65519;53.230;10.390;2024-02-15T08:03:51;101263.78;;;11.90;100.00
76627;BME280;65519;53.230;10.390;2024-02-15T08:06:18;101248.56;;;11.99;100.00
76627;BME280;65519;53.230;10.390;2024-02-15T08:08:45;101254.53;;;12.01;100.00
76627;BME280;65519;53.230;10.390;2024-02-15T08:11:11;101242.78;;;11.96;100.00
76627;BME280;65519;53.230;10.390;2024-02-15T08:14:00;101229.16;;;12.06;100.00
76627;BME280;65519;53.230;10.390;2024-02-15T08:16:26;101245.25;;;12.02;100.00
76627;BME280;65519;53.230;10.390;2024-02-15T08:18:53;101243.91;;;12.05;100.00
76627;BME280;65519;53.230;10.390;2024-02-15T08:21:29;101250.50;;;12.09;100.00
76627;BME280;65519;53.230;10.390;2024-02-15T08:23:58;101254.59;;;12.12;100.00
76627;BME280;65519;53.230;10.390;2024-02-15T08:26:24;101252.69;;;12.07;100.00
76627;BME280;65519;53.230;10.390;2024-02-15T08:28:49;101257.06;;;12.13;100.00
76627;BME280;65519;53.230;10.390;2024-02-15T08:31:15;101253.81;;;12.11;100.00
76627;BME280;65519;53.230;10.390;2024-02-15T08:33:43;101240.19;;;12.21;100.00
76627;BME280;65519;53.230;10.390;2024-02-15T08:36:10;101259.84;;;12.18;100.00
76627;BME280;65519;53.230;10.390;2024-02-15T08:38:38;101244.84;;;12.21;100.00
76627;BME280;65519;53.230;10.390;2024-02-15T08:41:04;101235.00;;;12.25;100.00
76627;BME280;65519;53.230;10.390;2024-02-15T08:43:31;101240.19;;;12.26;100.00
76627;BME280;65519;53.230;10.390;2024-02-15T08:46:00;101242.38;;;12.24;100.00
76627;BME280;65519;53.230;10.390;2024-02-15T08:48:26;101251.16;;;12.31;100.00
76627;BME280;65519;53.230;10.390;2024-02-15T08:50:52;101250.31;;;12.26;100.00
76627;BME280;65519;53.230;10.390;2024-02-15T08:53:17;101248.97;;;12.28;100.00
76627;BME280;65519;53.230;10.390;2024-02-15T08:55:47;101236.94;;;12.34;100.00
76627;BME280;65519;53.230;10.390;2024-02-15T08:58:13;101239.97;;;12.33;100.00
76627;BME280;65519;53.230;10.390;2024-02-15T09:00:39;101234.53;;;12.43;100.00
76627;BME280;65519;53.230;10.390;2024-02-15T09:03:10;101232.09;;;12.52;100.00
76627;BME280;65519;53.230;10.390;2024-02-15T09:05:35;101225.50;;;12.48;100.00
76627;BME280;65519;53.230;10.390;2024-02-15T09:08:01;101232.06;;;12.47;100.00
76627;BME280;65519;53.230;10.390;2024-02-15T09:10:26;101228.81;;;12.50;100.00
76627;BME280;65519;53.230;10.390;2024-02-15T09:12:52;101245.47;;;12.48;100.00
76627;BME280;65519;53.230;10.390;2024-02-15T09:15:17;101236.47;;;12.53;100.00
76627;BME280;65519;53.230;10.390;2024-02-15T09:17:44;101240.56;;;12.50;100.00
76627;BME280;65519;53.230;10.390;2024-02-15T09:20:12;101241.41;;;12.51;100.00
76627;BME280;65519;53.230;10.390;2024-02-15T09:22:51;101238.09;;;12.49;100.00
76627;BME280;65519;53.230;10.390;2024-02-15T09:25:18;101237.84;;;12.55;100.00
76627;BME280;65519;53.230;10.390;2024-02-15T09:27:44;101231.50;;;12.44;100.00
76627;BME280;65519;53.230;10.390;2024-02-15T09:30:12;101234.84;;;12.57;100.00
76627;BME280;65519;53.230;10.390;2024-02-15T09:32:39;101238.94;;;12.54;100.00
76627;BME280;65519;53.230;10.390;2024-02-15T09:35:05;101240.03;;;12.58;100.00
76627;BME280;65519;53.230;10.390;2024-02-15T09:37:37;101236.16;;;12.44;100.00
76627;BME280;65519;53.230;10.390;2024-02-15T09:40:08;101249.06;;;12.59;100.00
76627;BME280;65519;53.230;10.390;2024-02-15T09:42:35;101245.81;;;12.62;100.00
76627;BME280;65519;53.230;10.390;2024-02-15T09:45:01;101241.72;;;12.64;100.00
76627;BME280;65519;53.230;10.390;2024-02-15T09:47:34;101236.78;;;12.61;100.00
76627;BME280;65519;53.230;10.390;2024-02-15T09:50:00;101241.41;;;12.66;100.00
76627;BME280;65519;53.230;10.390;2024-02-15T09:52:28;101237.56;;;12.57;100.00
76627;BME280;65519;53.230;10.390;2024-02-15T09:54:57;101239.75;;;12.55;100.00
76627;BME280;65519;53.230;10.390;2024-02-15T09:57:23;101247.41;;;12.58;100.00
76627;BME280;65519;53.230;10.390;2024-02-15T09:59:49;101242.47;;;12.55;100.00
76627;BME280;65519;53.230;10.390;2024-02-15T10:02:15;101244.69;;;12.53;100.00
76627;BME280;65519;53.230;10.390;2024-02-15T10:04:41;101254.81;;;12.52;100.00
76627;BME280;65519;53.230;10.390;2024-02-15T10:07:08;101249.88;;;12.54;100.00
76627;BME280;65519;53.230;10.390;2024-02-15T10:09:34;101254.53;;;12.59;100.00
76627;BME280;65519;53.230;10.390;2024-02-15T10:12:02;101253.72;;;12.58;100.00
76627;BME280;65519;53.230;10.390;2024-02-15T10:14:29;101255.88;;;12.56;100.00
76627;BME280;65519;53.230;10.390;2024-02-15T10:16:56;101249.63;;;12.66;100.00
76627;BME280;65519;53.230;10.390;2024-02-15T10:19:22;101249.09;;;12.64;100.00
76627;BME280;65519;53.230;10.390;2024-02-15T10:21:54;101246.91;;;12.71;100.00
76627;BME280;65519;53.230;10.390;2024-02-15T10:24:23;101243.59;;;12.59;100.00
76627;BME280;65519;53.230;10.390;2024-02-15T10:27:00;101260.03;;;12.69;100.00
76627;BME280;65519;53.230;10.390;2024-02-15T10:29:32;101255.38;;;12.59;100.00
76627;BME280;65519;53.230;10.390;2024-02-15T10:32:00;101256.44;;;12.58;100.00
76627;BME280;65519;53.230;10.390;2024-02-15T10:34:26;101257.84;;;12.66;100.00
76627;BME280;65519;53.230;10.390;2024-02-15T10:37:14;101254.00;;;12.62;100.00
76627;BME280;65519;53.230;10.390;2024-02-15T10:39:42;101253.22;;;12.71;100.00
76627;BME280;65519;53.230;10.390;2024-02-15T10:42:08;101257.88;;;12.76;100.00
76627;BME280;65519;53.230;10.390;2024-02-15T10:44:36;101254.59;;;12.74;100.00
76627;BME280;65519;53.230;10.390;2024-02-15T10:47:04;101249.66;;;12.71;100.00
76627;BME280;65519;53.230;10.390;2024-02-15T10:49:33;101249.69;;;12.76;100.00
76627;BME280;65519;53.230;10.390;2024-02-15T10:52:00;101246.66;;;12.72;100.00
76627;BME280;65519;53.230;10.390;2024-02-15T10:54:43;101246.09;;;12.70;100.00
76627;BME280;65519;53.230;10.390;2024-02-15T10:57:12;101239.28;;;12.73;100.00
76627;BME280;65519;53.230;10.390;2024-02-15T10:59:49;101238.75;;;12.76;100.00
76627;BME280;65519;53.230;10.390;2024-02-15T11:02:33;101227.00;;;12.86;100.00
76627;BME280;65519;53.230;10.390;2024-02-15T11:05:05;101222.06;;;12.83;100.00
76627;BME280;65519;53.230;10.390;2024-02-15T11:07:34;101219.06;;;12.84;100.00
76627;BME280;65519;53.230;10.390;2024-02-15T11:10:00;101226.72;;;12.92;100.00
76627;BME280;65519;53.230;10.390;2024-02-15T11:12:28;101219.03;;;12.89;100.00
76627;BME280;65519;53.230;10.390;2024-02-15T11:14:54;101219.59;;;12.91;100.00
76627;BME280;65519;53.230;10.390;2024-02-15T11:22:58;101215.75;;;12.87;100.00
76627;BME280;65519;53.230;10.390;2024-02-15T11:25:31;101209.47;;;12.92;100.00
76627;BME280;65519;53.230;10.390;2024-02-15T11:30:48;101196.63;;;12.97;100.00
76627;BME280;65519;53.230;10.390;2024-02-15T11:33:42;101198.81;;;13.05;100.00
76627;BME280;65519;53.230;10.390;2024-02-15T11:36:10;101195.53;;;13.13;100.00
76627;BME280;65519;53.230;10.390;2024-02-15T11:38:37;101182.44;;;13.15;100.00
76627;BME280;65519;53.230;10.390;2024-02-15T11:41:07;101185.13;;;13.05;100.00
76627;BME280;65519;53.230;10.390;2024-02-15T11:46:11;101195.53;;;13.03;100.00
76627;BME280;65519;53.230;10.390;2024-02-15T11:48:39;101184.59;;;13.08;100.00
76627;BME280;65519;53.230;10.390;2024-02-15T11:51:05;101185.94;;;13.11;100.00
76627;BME280;65519;53.230;10.390;2024-02-15T11:53:32;101176.38;;;13.08;100.00
76627;BME280;65519;53.230;10.390;2024-02-15T11:56:01;101171.75;;;13.14;100.00
76627;BME280;65519;53.230;10.390;2024-02-15T11:58:27;101167.63;;;13.06;100.00
76627;BME280;65519;53.230;10.390;2024-02-15T12:01:08;101170.34;;;13.01;100.00
76627;BME280;65519;53.230;10.390;2024-02-15T12:03:54;101168.97;;;13.09;100.00
76627;BME280;65519;53.230;10.390;2024-02-15T12:06:39;101163.78;;;13.07;100.00
76627;BME280;65519;53.230;10.390;2024-02-15T12:09:23;101158.84;;;12.99;100.00
76627;BME280;65519;53.230;10.390;2024-02-15T12:12:09;101163.22;;;13.10;100.00
76627;BME280;65519;53.230;10.390;2024-02-15T12:15:00;101161.06;;;13.07;100.00
76627;BME280;65519;53.230;10.390;2024-02-15T12:17:44;101162.13;;;13.01;100.00
76627;BME280;65519;53.230;10.390;2024-02-15T12:20:28;101161.59;;;13.04;100.00
76627;BME280;65519;53.230;10.390;2024-02-15T12:22:54;101159.94;;;12.93;100.00
76627;BME280;65519;53.230;10.390;2024-02-15T12:25:20;101156.09;;;12.99;100.00
76627;BME280;65519;53.230;10.390;2024-02-15T12:27:52;101152.28;;;12.95;100.00
76627;BME280;65519;53.230;10.390;2024-02-15T12:30:18;101161.31;;;12.86;100.00
76627;BME280;65519;53.230;10.390;2024-02-15T12:32:50;101159.38;;;12.81;100.00
76627;BME280;65519;53.230;10.390;2024-02-15T12:35:17;101155.84;;;12.80;100.00
76627;BME280;65519;53.230;10.390;2024-02-15T12:38:09;101147.34;;;12.77;100.00
76627;BME280;65519;53.230;10.390;2024-02-15T12:40:39;101154.47;;;12.78;100.00
76627;BME280;65519;53.230;10.390;2024-02-15T12:43:06;101158.28;;;12.77;100.00
76627;BME280;65519;53.230;10.390;2024-02-15T12:45:35;101146.25;;;12.83;100.00